CheckWX is a tool to help pilots better visualize weather data.  It is not intended as a substitute for an official pre-flight weather briefing.

03:23:50 UTC

OMRK TAF
Ras Al Khaimah International Airport
Ras Al Khaimah, United Arab Emirates
TAF OMRK 052302Z 0600/0706 17005KT CAVOK BECMG 0606/0608 28012KT BECMG 0615/0617 VRB02KT PROB30 0622/0700 4000 HZ PROB30 0700/0705 1500 BR BKN005

Apr-6@
00:00 UTC

Apr-6 @ 00:00 UTC

Apr-6@
06:00 UTC

Apr-6 @ 06:00 UTC

TAF OMRK 052302Z 0600/0706 17005KT CAVOK

Expired

Wind
  • 170° at 5 KTS
Conditions
No significant weather
Cloud Levels
  • No significant clouds

Apr-6@
06:00 UTC

Apr-6 @ 06:00 UTC

Apr-6@
15:00 UTC

Apr-6 @ 15:00 UTC

BECMG 0606/0608 28012KT

Expired

Wind
  • 280° at 12 KTS
Conditions
No significant weather
Cloud Levels
  • No significant clouds

Apr-6@
15:00 UTC

Apr-6 @ 15:00 UTC

Apr-7@
06:00 UTC

Apr-7 @ 06:00 UTC

BECMG 0615/0617 VRB02KT

Becoming

Becoming Conditions expected by Mon, Apr 6, 2020 @ 17:00 UTC

Wind
  • Variable at 2 KTS
Conditions
No significant weather
Cloud Levels
  • No significant clouds

Apr-6@
22:00 UTC

Apr-6 @ 22:00 UTC

Apr-7@
00:00 UTC

Apr-7 @ 00:00 UTC

PROB30 0622/0700 4000 HZ

Expired

Conditions
Haze
Cloud Levels

Apr-7@
00:00 UTC

Apr-7 @ 00:00 UTC

Apr-7@
05:00 UTC

Apr-7 @ 05:00 UTC

PROB30 0700/0705 1500 BR BKN005

Probable - 30% Likelihood

Probable - 30% Likelihood during this time.

Conditions
Mist
Cloud Levels
  • Broken at 500' AGL